Time;durP1;ratioP1;P1;durP2;ratioP2;P2;SDS_P1;SDS_P2;PMS_P1;PMS_P2;Temp;Humidity;BMP_temperature;BMP_pressure;BME280_temperature;BME280_humidity;BME280_pressure;Samples;Min_cycle;Max_cycle;Signal;HPM_P1;HPM_P2
2022/07/15 00:01:31;;;;;;;6.38;1.50;;;;;;;14.03;nan;102244.44;5031810;28;20037;-60
2022/07/15 00:03:56;;;;;;;4.07;1.20;;;;;;;14.01;nan;102245.34;5031796;28;20041;-60
2022/07/15 00:06:21;;;;;;;4.88;1.38;;;;;;;13.70;nan;102196.72;5030433;28;20112;-61
2022/07/15 00:08:47;;;;;;;4.47;1.40;;;;;;;13.94;nan;102235.84;5031697;28;20033;-59
2022/07/15 00:11:12;;;;;;;5.90;1.50;;;;;;;13.54;nan;102169.78;5032023;28;20033;-60
2022/07/15 00:13:37;;;;;;;5.43;1.60;;;;;;;13.91;nan;102233.28;5030569;28;20041;-61
2022/07/15 00:16:03;;;;;;;7.85;1.65;;;;;;;13.87;nan;102244.81;5030363;28;20454;-61
2022/07/15 00:18:28;;;;;;;5.35;1.70;;;;;;;13.86;nan;102227.22;5031962;28;20071;-58
2022/07/15 00:20:53;;;;;;;6.80;1.60;;;;;;;13.83;nan;102230.81;5035155;28;20033;-59
2022/07/15 00:23:19;;;;;;;5.15;1.52;;;;;;;13.82;nan;102230.84;5035397;28;20083;-58
2022/07/15 00:25:44;;;;;;;5.72;1.58;;;;;;;13.57;nan;102190.88;5035768;28;20156;-58
2022/07/15 00:28:09;;;;;;;5.13;1.10;;;;;;;13.50;nan;102181.31;5033897;28;20029;-58
2022/07/15 00:30:40;;;;;;;5.45;1.95;;;;;;;13.76;nan;102218.63;5033704;28;20385;-55
2022/07/15 00:33:05;;;;;;;7.53;1.65;;;;;;;13.72;nan;102227.53;5034730;28;20065;-54
2022/07/15 00:35:32;;;;;;;6.65;1.20;;;;;;;13.68;nan;102217.94;5033577;28;20069;-57
2022/07/15 00:37:58;;;;;;;9.10;1.70;;;;;;;13.33;nan;102163.22;5033438;28;20053;-57
2022/07/15 00:40:23;;;;;;;8.13;2.13;;;;;;;13.64;nan;102218.91;5033258;28;20040;-60
2022/07/15 00:42:48;;;;;;;7.40;1.63;;;;;;;13.37;nan;102178.06;5033322;28;20083;-60
2022/07/15 00:45:17;;;;;;;5.03;1.42;;;;;;;13.58;nan;102208.47;5034163;28;20133;-60
2022/07/15 00:47:44;;;;;;;10.15;1.90;;;;;;;13.62;nan;102219.84;5034472;28;20049;-59
2022/07/15 00:50:10;;;;;;;4.97;1.38;;;;;;;13.58;nan;102219.03;5033270;28;20060;-60
2022/07/15 00:52:39;;;;;;;6.68;1.88;;;;;;;13.49;nan;102196.31;5034452;28;20033;-59
2022/07/15 00:55:06;;;;;;;3.53;1.20;;;;;;;13.59;nan;102209.34;5034579;28;20055;-61
2022/07/15 00:57:32;;;;;;;4.93;1.33;;;;;;;13.57;nan;102216.44;5033224;28;20119;-57
2022/07/15 01:00:02;;;;;;;6.70;1.65;;;;;;;13.40;nan;102190.34;5033439;28;20091;-59
2022/07/15 01:02:27;;;;;;;6.30;1.77;;;;;;;13.46;nan;102208.75;5034517;28;20034;-60
2022/07/15 01:04:53;;;;;;;7.20;1.48;;;;;;;13.45;nan;102209.66;5033058;28;20064;-59
2022/07/15 01:07:19;;;;;;;4.38;1.27;;;;;;;13.39;nan;102213.31;5034301;28;20044;-61
2022/07/15 01:09:44;;;;;;;3.55;1.20;;;;;;;13.38;nan;102214.22;5032995;28;20037;-60
2022/07/15 01:12:10;;;;;;;6.05;1.38;;;;;;;13.03;nan;102161.19;5034239;28;20092;-60
2022/07/15 01:14:36;;;;;;;4.75;1.90;;;;;;;13.33;nan;102218.75;5032745;28;20377;-59
2022/07/15 01:17:01;;;;;;;5.05;1.35;;;;;;;12.99;nan;102164.78;5034183;28;20033;-59
2022/07/15 01:19:26;;;;;;;4.60;1.25;;;;;;;13.27;nan;102218.00;5032913;28;20042;-61
2022/07/15 01:21:52;;;;;;;7.53;1.60;;;;;;;13.24;nan;102220.72;5032623;28;20120;-60
2022/07/15 01:24:17;;;;;;;5.35;1.52;;;;;;;13.20;nan;102209.31;5034093;28;20120;-61
2022/07/15 01:26:42;;;;;;;3.45;1.17;;;;;;;13.14;nan;102201.53;5033939;28;20495;-60
2022/07/15 01:29:07;;;;;;;6.50;1.20;;;;;;;12.83;nan;102158.09;5032855;28;20038;-58
2022/07/15 01:31:33;;;;;;;7.40;1.55;;;;;;;13.16;nan;102222.66;5034021;28;20037;-59
2022/07/15 01:33:58;;;;;;;6.78;1.63;;;;;;;12.78;nan;102152.06;5033841;28;20068;-58
2022/07/15 01:36:23;;;;;;;6.25;1.58;;;;;;;13.10;nan;102218.38;5032258;28;20281;-58
2022/07/15 01:38:49;;;;;;;6.75;1.42;;;;;;;12.75;nan;102160.91;5031941;28;20057;-57
2022/07/15 01:41:14;;;;;;;5.82;1.70;;;;;;;12.82;nan;102173.09;5031927;28;20037;-57
2022/07/15 01:43:39;;;;;;;5.45;1.30;;;;;;;;;;5033728;28;20037;-57
2022/07/15 01:46:05;;;;;;;7.43;1.40;;;;;;;;;;5033899;28;20033;-59
2022/07/15 01:51:14;;;;;;;4.75;0.95;;;;;;;;;;5033692;28;20052;-59
2022/07/15 01:53:39;;;;;;;5.50;1.37;;;;;;;;;;5033180;28;20393;-58
2022/07/15 01:56:05;;;;;;;5.05;1.13;;;;;;;;;;5033205;28;20421;-57
2022/07/15 01:58:30;;;;;;;3.00;1.30;;;;;;;;;;5033510;28;20055;-55
2022/07/15 02:00:55;;;;;;;3.90;1.17;;;;;;;;;;5031998;28;20502;-58
2022/07/15 02:03:20;;;;;;;3.60;1.40;;;;;;;;;;5033077;28;20272;-60
2022/07/15 02:05:46;;;;;;;5.90;1.70;;;;;;;;;;5033092;28;20037;-57
2022/07/15 02:08:11;;;;;;;3.30;1.50;;;;;;;;;;5032744;28;20377;-59
2022/07/15 02:10:39;;;;;;;4.93;1.42;;;;;;;;;;5032864;28;20033;-57
2022/07/15 02:13:12;;;;;;;4.65;1.33;;;;;;;;;;5032750;28;20045;-56
2022/07/15 02:15:37;;;;;;;5.15;1.42;;;;;;;;;;5032816;28;20091;-59
2022/07/15 02:18:03;;;;;;;4.38;1.23;;;;;;;;;;5033007;28;20033;-53
2022/07/15 02:20:28;;;;;;;4.18;1.58;;;;;;;;;;5033093;28;20412;-58
2022/07/15 02:22:57;;;;;;;8.13;1.70;;;;;;;;;;5032678;28;20045;-59
2022/07/15 02:25:22;;;;;;;6.00;1.60;;;;;;;;;;5032917;28;20045;-57
2022/07/15 02:27:47;;;;;;;3.17;1.37;;;;;;;;;;5032865;28;20045;-59
2022/07/15 02:30:13;;;;;;;2.73;1.57;;;;;;;;;;5032603;28;20287;-57
2022/07/15 02:32:38;;;;;;;7.83;1.77;;;;;;;;;;5014812;28;20041;-59
2022/07/15 02:35:03;;;;;;;4.77;1.20;;;;;;;;;;5032483;28;20298;-58
2022/07/15 02:37:28;;;;;;;5.40;1.80;;;;;;;;;;5030537;28;20056;-59
2022/07/15 02:39:54;;;;;;;4.73;1.23;;;;;;;;;;5032715;28;20037;-58
2022/07/15 02:42:19;;;;;;;4.50;2.17;;;;;;;;;;5031819;28;20034;-60
2022/07/15 02:44:44;;;;;;;3.93;1.47;;;;;;;12.20;nan;102192.75;5032194;28;20040;-59
2022/07/15 02:47:10;;;;;;;4.43;1.30;;;;;;;12.25;nan;102201.50;5032119;28;20048;-59
2022/07/15 02:49:35;;;;;;;5.03;1.08;;;;;;;12.19;nan;102198.09;5032312;28;20029;-59
2022/07/15 02:52:01;;;;;;;2.55;1.00;;;;;;;12.00;nan;102176.41;5032237;28;20102;-61
2022/07/15 02:54:27;;;;;;;4.00;1.80;;;;;;;12.09;nan;102199.13;5031175;28;20037;-61
2022/07/15 02:56:52;;;;;;;4.80;1.42;;;;;;;12.12;nan;102212.28;5014288;28;20456;-60
2022/07/15 02:59:17;;;;;;;4.47;1.08;;;;;;;12.07;nan;102217.63;5032155;28;20068;-59
2022/07/15 03:01:43;;;;;;;3.92;1.58;;;;;;;12.00;nan;102204.56;5032037;28;20041;-59
2022/07/15 03:04:08;;;;;;;3.70;1.27;;;;;;;11.61;nan;102140.97;5030712;28;20423;-62
2022/07/15 03:06:34;;;;;;;6.00;1.42;;;;;;;12.00;nan;102200.16;5031864;28;20029;-60
2022/07/15 03:08:59;;;;;;;4.35;1.30;;;;;;;11.56;nan;102140.16;5030743;28;20428;-60
2022/07/15 03:11:24;;;;;;;4.28;0.90;;;;;;;12.02;nan;102234.44;5032058;28;20045;-60
2022/07/15 03:13:50;;;;;;;3.13;0.95;;;;;;;11.95;nan;102209.91;5031891;28;20041;-62
2022/07/15 03:16:15;;;;;;;5.68;1.45;;;;;;;12.04;nan;102222.97;5031869;28;20034;-60
2022/07/15 03:18:40;;;;;;;1.80;0.90;;;;;;;11.65;nan;102163.75;5032071;28;20127;-60
2022/07/15 03:21:06;;;;;;;5.82;1.55;;;;;;;11.67;nan;102159.34;5031775;28;20094;-61
2022/07/15 03:23:31;;;;;;;4.57;1.02;;;;;;;12.09;nan;102233.44;5030454;28;20429;-59
2022/07/15 03:25:56;;;;;;;6.78;1.20;;;;;;;12.12;nan;102239.53;5030666;28;20029;-60
2022/07/15 03:28:22;;;;;;;3.85;1.17;;;;;;;11.73;nan;102172.44;5030641;28;20053;-60
2022/07/15 03:30:48;;;;;;;3.42;1.40;;;;;;;11.97;nan;102201.97;5031573;28;20040;-60
2022/07/15 03:33:13;;;;;;;5.22;1.58;;;;;;;12.17;nan;102244.75;5031790;28;20033;-65
2022/07/15 03:35:41;;;;;;;5.55;1.17;;;;;;;12.16;nan;102233.31;5029992;28;20056;-60
2022/07/15 03:38:06;;;;;;;3.80;1.27;;;;;;;11.76;nan;102172.41;5031582;28;20061;-60
2022/07/15 03:40:32;;;;;;;3.53;0.80;;;;;;;11.76;nan;102171.56;5031630;28;20477;-61
2022/07/15 03:42:57;;;;;;;4.20;1.00;;;;;;;12.16;nan;102241.25;5030178;28;20159;-59
2022/07/15 03:45:23;;;;;;;4.78;1.05;;;;;;;12.20;nan;102250.84;5031191;28;20085;-60
2022/07/15 03:47:48;;;;;;;5.05;0.98;;;;;;;12.06;nan;102230.84;5031422;28;20379;-60
2022/07/15 03:50:13;;;;;;;3.05;0.73;;;;;;;12.19;nan;102250.88;5029926;28;20041;-61
2022/07/15 03:52:39;;;;;;;3.42;0.90;;;;;;;12.11;nan;102242.22;5031255;28;20044;-57
2022/07/15 03:55:06;;;;;;;4.00;0.90;;;;;;;12.21;nan;102268.44;5030258;28;20144;-59
2022/07/15 03:57:31;;;;;;;3.88;1.00;;;;;;;12.19;nan;102256.16;5031331;28;20056;-60
2022/07/15 03:59:56;;;;;;;3.55;0.90;;;;;;;12.20;nan;102273.75;5031133;28;20038;-60
2022/07/15 04:02:21;;;;;;;2.88;0.80;;;;;;;11.77;nan;102199.66;5030051;28;20049;-60
2022/07/15 04:04:47;;;;;;;2.08;1.27;;;;;;;12.07;nan;102251.94;5031339;28;20038;-60
2022/07/15 04:07:12;;;;;;;5.43;1.30;;;;;;;12.21;nan;102270.19;5030770;28;20354;-60
2022/07/15 04:09:37;;;;;;;3.58;1.00;;;;;;;12.23;nan;102274.56;5031065;28;20071;-61
2022/07/15 04:12:03;;;;;;;7.30;1.90;;;;;;;11.86;nan;102207.44;5031067;28;20044;-61
2022/07/15 04:14:28;;;;;;;2.95;1.13;;;;;;;12.22;nan;102271.94;5029868;28;20491;-60
2022/07/15 04:16:54;;;;;;;4.80;1.23;;;;;;;12.31;nan;102277.97;5029806;28;20033;-60
2022/07/15 04:19:19;;;;;;;6.60;1.40;;;;;;;11.92;nan;102201.19;5029786;28;20423;-60
2022/07/15 04:21:44;;;;;;;4.35;1.23;;;;;;;11.99;nan;102202.84;5029534;28;20064;-60
2022/07/15 04:24:10;;;;;;;3.00;1.30;;;;;;;12.45;nan;102280.34;5031010;28;20056;-61
2022/07/15 04:26:36;;;;;;;5.13;1.05;;;;;;;12.47;nan;102281.19;5031035;28;20037;-61
2022/07/15 04:29:02;;;;;;;3.28;1.10;;;;;;;12.50;nan;102280.25;5031019;28;20025;-60
2022/07/15 04:31:27;;;;;;;3.80;1.35;;;;;;;12.15;nan;102221.00;5030908;28;20033;-58
2022/07/15 04:33:52;;;;;;;4.15;1.08;;;;;;;12.52;nan;102281.97;5030713;28;20512;-59
2022/07/15 04:36:18;;;;;;;10.00;2.75;;;;;;;12.49;nan;102271.50;5029641;28;20468;-60
2022/07/15 04:38:43;;;;;;;3.20;1.10;;;;;;;12.22;nan;102208.59;5031044;28;20065;-62
2022/07/15 04:41:08;;;;;;;5.35;1.10;;;;;;;12.29;nan;102224.28;5029814;28;20041;-61
2022/07/15 04:43:34;;;;;;;4.80;1.17;;;;;;;12.69;nan;102285.22;5030887;28;20064;-63
2022/07/15 04:45:59;;;;;;;4.00;1.20;;;;;;;12.65;nan;102275.59;5030919;28;20496;-59
2022/07/15 04:51:08;;;;;;;4.50;1.30;;;;;;;12.77;nan;102279.78;5031119;28;20053;-60
2022/07/15 04:53:34;;;;;;;3.85;1.00;;;;;;;12.39;nan;102214.44;5030513;28;20409;-59
2022/07/15 04:55:59;;;;;;;4.75;0.93;;;;;;;12.50;nan;102230.06;5030149;28;20030;-60
2022/07/15 04:58:24;;;;;;;4.07;0.90;;;;;;;12.56;nan;102233.47;5030790;28;20029;-59
2022/07/15 05:00:50;;;;;;;7.32;1.45;;;;;;;12.94;nan;102285.59;5030488;28;20143;-61
2022/07/15 05:03:16;;;;;;;4.30;0.90;;;;;;;12.39;nan;102177.47;5030521;28;20121;-62
2022/07/15 05:05:44;;;;;;;6.22;1.20;;;;;;;13.13;nan;102294.09;5031750;28;20136;-61
2022/07/15 05:08:11;;;;;;;3.83;0.93;;;;;;;13.19;nan;102286.03;5041963;28;20041;-60
2022/07/15 05:10:36;;;;;;;2.42;0.88;;;;;;;13.17;nan;102274.59;5053567;28;20036;-60
2022/07/15 05:13:05;;;;;;;3.35;1.58;;;;;;;12.91;nan;102211.66;5051098;28;20029;-60
2022/07/15 05:15:31;;;;;;;3.30;1.45;;;;;;;12.99;nan;102222.94;5052721;28;20111;-60
2022/07/15 05:17:56;;;;;;;5.57;1.67;;;;;;;13.04;nan;102217.59;5052641;28;20044;-59
2022/07/15 05:20:21;;;;;;;4.75;1.00;;;;;;;13.49;nan;102282.75;5053620;28;20110;-59
2022/07/15 05:22:47;;;;;;;3.75;0.85;;;;;;;13.46;nan;102272.22;5054031;28;20033;-61
2022/07/15 05:25:13;;;;;;;6.00;0.90;;;;;;;13.24;nan;102208.38;5052783;28;20035;-61
2022/07/15 05:27:39;;;;;;;5.22;1.08;;;;;;;13.47;nan;102234.28;5053837;28;20083;-60
2022/07/15 05:30:05;;;;;;;5.22;0.98;;;;;;;13.83;nan;102291.69;5053564;28;20499;-60
2022/07/15 05:32:30;;;;;;;4.55;1.15;;;;;;;13.94;nan;102286.16;5052220;28;20112;-60
2022/07/15 05:34:56;;;;;;;7.32;1.02;;;;;;;14.01;nan;102282.44;5035631;28;20468;-59
2022/07/15 05:37:21;;;;;;;3.35;1.10;;;;;;;14.18;nan;102290.88;5053165;28;20049;-60
2022/07/15 05:39:56;;;;;;;5.65;1.02;;;;;;;13.97;nan;102225.19;5052181;28;20044;-60
2022/07/15 05:42:23;;;;;;;3.58;1.30;;;;;;;14.43;nan;102299.09;5052250;28;20040;-60
2022/07/15 05:44:48;;;;;;;1.60;0.93;;;;;;;14.58;nan;102288.97;5052098;28;20029;-61
2022/07/15 05:47:15;;;;;;;4.50;1.20;;;;;;;14.03;nan;102183.56;5053109;28;20487;-61
2022/07/15 05:49:41;;;;;;;3.60;0.90;;;;;;;14.34;nan;102214.56;5053278;28;20025;-60
2022/07/15 05:52:07;;;;;;;4.00;0.68;;;;;;;14.91;nan;102303.13;5035412;28;20118;-59
2022/07/15 05:54:32;;;;;;;2.45;0.50;;;;;;;14.84;nan;102261.78;5052617;28;20068;-58
2022/07/15 05:56:58;;;;;;;6.28;0.90;;;;;;;15.01;nan;102278.09;5053240;28;20029;-60
2022/07/15 05:59:23;;;;;;;3.58;1.13;;;;;;;15.23;nan;102313.69;5053230;28;20041;-61
2022/07/15 06:01:49;;;;;;;3.20;0.90;;;;;;;15.36;nan;102308.91;5052984;28;20052;-59
2022/07/15 06:04:14;;;;;;;4.63;0.90;;;;;;;15.10;nan;102231.88;5051979;28;20079;-61
2022/07/15 06:06:39;;;;;;;2.60;1.00;;;;;;;15.48;nan;102289.13;5051275;28;20116;-61
2022/07/15 06:09:05;;;;;;;3.28;1.02;;;;;;;15.45;nan;102254.69;5052655;28;20060;-59
2022/07/15 06:11:30;;;;;;;3.58;1.20;;;;;;;15.76;nan;102292.72;5053083;28;20379;-59
2022/07/15 06:13:56;;;;;;;4.28;1.05;;;;;;;15.90;nan;102290.50;5052972;28;20053;-60
2022/07/15 06:16:21;;;;;;;11.02;1.13;;;;;;;16.01;nan;102295.47;5034286;28;20518;-59
2022/07/15 06:18:48;;;;;;;2.53;0.63;;;;;;;16.13;nan;102303.91;5052312;28;20106;-60
2022/07/15 06:21:14;;;;;;;2.50;0.85;;;;;;;16.21;nan;102290.38;5052879;28;20048;-59
2022/07/15 06:23:39;;;;;;;3.97;0.70;;;;;;;16.07;nan;102247.47;5052978;28;20087;-60
2022/07/15 06:26:05;;;;;;;2.80;0.90;;;;;;;16.50;nan;102294.72;5051602;28;20079;-61
2022/07/15 06:28:30;;;;;;;2.08;0.55;;;;;;;16.45;nan;102241.72;5051539;28;20053;-58
2022/07/15 06:30:56;;;;;;;2.97;0.75;;;;;;;17.05;nan;102304.31;5052483;28;20029;-60
2022/07/15 06:33:24;;;;;;;1.88;0.80;;;;;;;17.31;nan;102307.78;5052574;28;20037;-60
2022/07/15 06:35:49;;;;;;;6.95;1.10;;;;;;;17.76;nan;102312.31;5051235;28;20067;-60
2022/07/15 06:38:15;;;;;;;2.35;0.60;;;;;;;18.05;nan;102300.50;5052125;28;20496;-63
2022/07/15 06:40:40;;;;;;;5.03;1.50;;;;;;;18.40;nan;102310.59;5050968;28;20063;-61
2022/07/15 06:43:06;;;;;;;1.88;0.70;;;;;;;18.42;nan;102277.59;5051245;28;20060;-59
2022/07/15 06:45:31;;;;;;;5.53;1.17;;;;;;;18.64;nan;102292.72;5034085;28;20090;-59
2022/07/15 06:47:56;;;;;;;2.33;0.80;;;;;;;19.07;nan;102325.47;5052497;28;20493;-62
2022/07/15 06:50:24;;;;;;;2.47;0.60;;;;;;;19.07;nan;102330.81;5052406;28;20037;-59
2022/07/15 06:52:49;;;;;;;2.67;1.15;;;;;;;18.57;nan;102272.56;5052270;28;20081;-61
2022/07/15 06:55:14;;;;;;;3.15;0.68;;;;;;;18.61;nan;102288.41;5050505;28;20071;-60
2022/07/15 06:57:40;;;;;;;2.10;0.40;;;;;;;18.84;nan;102351.41;5050806;28;20546;-60
2022/07/15 07:00:07;;;;;;;2.80;0.63;;;;;;;18.44;nan;102286.41;5052047;28;20036;-61
2022/07/15 07:02:33;;;;;;;2.10;0.70;;;;;;;18.71;nan;102339.56;5052154;28;20415;-60
2022/07/15 07:04:59;;;;;;;3.75;0.93;;;;;;;18.57;nan;102344.56;5046754;28;20033;-60
2022/07/15 07:07:25;;;;;;;2.28;0.50;;;;;;;18.53;nan;102350.03;5041036;28;20060;-59
2022/07/15 07:09:50;;;;;;;4.18;1.27;;;;;;;18.54;nan;102343.78;5030721;28;20068;-60
2022/07/15 07:12:16;;;;;;;2.00;0.65;;;;;;;18.67;nan;102344.16;5030309;28;20112;-59
2022/07/15 07:14:41;;;;;;;4.90;0.70;;;;;;;18.71;nan;102342.22;5031427;28;20033;-59
2022/07/15 07:17:06;;;;;;;2.15;0.50;;;;;;;18.26;nan;102297.84;5031734;28;20364;-62
2022/07/15 07:19:32;;;;;;;2.90;0.93;;;;;;;18.19;nan;102288.34;5031409;28;20053;-58
2022/07/15 07:21:57;;;;;;;2.97;0.70;;;;;;;18.44;nan;102352.19;5031600;28;20056;-56
2022/07/15 07:24:22;;;;;;;2.45;1.05;;;;;;;18.05;nan;102293.38;5032432;28;20037;-59
2022/07/15 07:26:48;;;;;;;3.05;0.60;;;;;;;18.22;nan;102306.00;5040916;28;20033;-59
2022/07/15 07:29:16;;;;;;;5.65;0.93;;;;;;;18.13;nan;102296.59;5029577;28;20033;-59
2022/07/15 07:31:41;;;;;;;2.85;0.70;;;;;;;17.92;nan;102244.19;5031862;28;20117;-59
2022/07/15 07:34:06;;;;;;;1.45;0.50;;;;;;;18.68;nan;102355.69;5013906;28;20121;-60
2022/07/15 07:36:32;;;;;;;3.15;0.57;;;;;;;18.90;nan;102353.81;5030324;28;20505;-58
2022/07/15 07:38:57;;;;;;;3.72;0.68;;;;;;;18.82;nan;102294.59;5010316;28;20053;-58
2022/07/15 07:41:22;;;;;;;3.80;1.00;;;;;;;19.42;nan;102355.09;5011555;28;20133;-55
2022/07/15 07:43:48;;;;;;;2.67;0.70;;;;;;;20.00;nan;102358.59;5011536;28;20539;-58
2022/07/15 07:46:14;;;;;;;1.95;0.65;;;;;;;20.14;nan;102316.03;5011220;28;20041;-57
2022/07/15 07:48:40;;;;;;;1.70;0.60;;;;;;;20.82;nan;102366.13;5010264;28;20029;-56
2022/07/15 07:51:06;;;;;;;4.38;0.70;;;;;;;21.18;nan;102325.91;5011589;28;20500;-58
2022/07/15 07:53:31;;;;;;;4.20;0.82;;;;;;;21.60;nan;102312.00;5011515;28;20088;-59
2022/07/15 07:55:56;;;;;;;1.88;0.70;;;;;;;22.47;nan;102377.69;5009816;28;20039;-60
2022/07/15 07:58:21;;;;;;;2.15;0.70;;;;;;;22.84;nan;102340.56;5010092;28;20034;-59
2022/07/15 08:00:47;;;;;;;2.13;0.50;;;;;;;22.78;nan;102381.19;5010237;28;20112;-59
2022/07/15 08:03:12;;;;;;;3.33;0.80;;;;;;;23.36;nan;102377.69;5011252;28;20033;-60
2022/07/15 08:05:38;;;;;;;1.10;0.75;;;;;;;23.00;nan;102369.19;5011434;28;20077;-61
2022/07/15 08:08:09;;;;;;;2.55;0.80;;;;;;;22.66;nan;102343.47;5009875;28;20101;-59
2022/07/15 08:10:34;;;;;;;3.90;0.77;;;;;;;22.29;nan;102235.63;5011426;28;20416;-60
2022/07/15 08:13:00;;;;;;;2.63;0.77;;;;;;;23.48;nan;102372.44;5010166;28;20121;-59
2022/07/15 08:15:26;;;;;;;0.75;0.45;;;;;;;23.23;nan;102353.41;5011612;28;20042;-59
2022/07/15 08:17:51;;;;;;;2.38;0.57;;;;;;;23.00;nan;102353.06;5011009;28;20113;-58
2022/07/15 08:20:17;;;;;;;2.67;0.60;;;;;;;23.50;nan;102391.16;5010509;28;20477;-59
2022/07/15 08:22:42;;;;;;;2.05;0.32;;;;;;;23.60;nan;102384.25;5010285;28;20044;-59
2022/07/15 08:25:08;;;;;;;1.30;0.38;;;;;;;23.63;nan;102386.75;5010688;28;20120;-60
2022/07/15 08:27:33;;;;;;;2.55;0.45;;;;;;;23.98;nan;102341.47;5009097;28;20029;-60
2022/07/15 08:29:58;;;;;;;1.73;0.40;;;;;;;24.24;nan;102347.88;5011430;28;20102;-60
2022/07/15 08:32:24;;;;;;;1.45;0.45;;;;;;;24.61;nan;102339.06;5011436;28;20183;-58
2022/07/15 08:34:49;;;;;;;4.20;0.80;;;;;;;24.95;nan;102348.47;5011138;28;20038;-58
2022/07/15 08:37:16;;;;;;;2.13;0.50;;;;;;;25.28;nan;102396.47;5016850;28;20493;-59
2022/07/15 08:39:41;;;;;;;2.22;0.60;;;;;;;25.13;nan;102388.44;5030891;28;20085;-60
2022/07/15 08:42:06;;;;;;;1.48;0.52;;;;;;;25.25;nan;102384.03;5033304;28;20376;-59
2022/07/15 08:44:32;;;;;;;0.55;0.47;;;;;;;25.39;nan;102400.13;5034826;28;20384;-59
2022/07/15 08:47:05;;;;;;;2.45;0.90;;;;;;;25.30;nan;102403.47;5033034;28;20033;-58
2022/07/15 08:49:32;;;;;;;2.67;0.65;;;;;;;25.04;nan;102345.13;5034733;28;20417;-60
2022/07/15 08:51:59;;;;;;;2.17;0.70;;;;;;;25.08;nan;102397.81;5034906;28;20029;-59
2022/07/15 08:54:25;;;;;;;1.73;0.55;;;;;;;24.45;nan;102358.09;5034318;28;20475;-58
2022/07/15 08:56:51;;;;;;;0.75;0.40;;;;;;;24.53;nan;102390.75;5034468;28;20091;-59
2022/07/15 08:59:17;;;;;;;2.47;0.38;;;;;;;24.37;nan;102408.84;5034687;28;20041;-57
2022/07/15 09:01:48;;;;;;;1.55;0.63;;;;;;;23.53;nan;102356.03;5034500;28;20044;-62
2022/07/15 09:04:14;;;;;;;1.10;0.30;;;;;;;23.09;nan;102342.63;5034565;28;20132;-61
2022/07/15 09:06:46;;;;;;;1.13;0.50;;;;;;;23.23;nan;102388.34;5032998;28;20045;-62
2022/07/15 09:09:28;;;;;;;2.95;1.20;;;;;;;22.95;nan;102381.06;5034269;28;20055;-61
2022/07/15 09:11:59;;;;;;;3.15;0.77;;;;;;;22.96;nan;102392.66;5034510;28;20030;-61
2022/07/15 09:14:28;;;;;;;2.17;0.70;;;;;;;22.63;nan;102384.75;5032953;28;20392;-61
2022/07/15 09:17:16;;;;;;;0.50;0.25;;;;;;;22.39;nan;102380.78;5032803;28;20029;-62
2022/07/15 09:20:03;;;;;;;0.93;0.50;;;;;;;22.54;nan;102371.00;5028645;28;20078;-61
2022/07/15 09:22:31;;;;;;;1.08;0.40;;;;;;;22.99;nan;102360.25;5032807;28;20081;-61
2022/07/15 09:25:05;;;;;;;1.17;0.50;;;;;;;23.79;nan;102366.00;5034024;28;20032;-60
2022/07/15 09:27:42;;;;;;;2.45;0.60;;;;;;;24.24;nan;102385.56;5033796;28;20040;-59
2022/07/15 09:36:01;;;;;;;0.85;0.50;;;;;;;23.65;nan;102375.88;5033686;28;20056;-60
2022/07/15 09:38:41;;;;;;;1.83;0.70;;;;;;;23.73;nan;102369.06;5031901;28;20531;-61
2022/07/15 09:41:40;;;;;;;1.95;0.80;;;;;;;23.08;nan;102365.06;5033566;28;20048;-59
2022/07/15 09:44:06;;;;;;;1.92;0.88;;;;;;;22.77;nan;102375.91;5033303;28;20030;-60
2022/07/15 09:46:52;;;;;;;1.30;0.47;;;;;;;23.04;nan;102379.63;5033291;28;20366;-60
2022/07/15 09:49:32;;;;;;;1.83;0.55;;;;;;;23.18;nan;102360.00;5033024;28;20029;-62
2022/07/15 09:52:02;;;;;;;0.70;0.60;;;;;;;23.28;nan;102361.16;5032310;28;20033;-56
2022/07/15 09:54:32;;;;;;;2.42;0.80;;;;;;;22.86;nan;102310.94;5032928;28;20033;-63
2022/07/15 09:57:01;;;;;;;1.63;0.80;;;;;;;22.88;nan;102341.25;5031962;28;20120;-60
2022/07/15 09:59:27;;;;;;;1.50;0.70;;;;;;;22.82;nan;102369.34;5033366;28;20506;-61
2022/07/15 10:01:53;;;;;;;2.13;0.98;;;;;;;22.65;nan;102315.75;5031731;28;20132;-62
2022/07/15 10:04:23;;;;;;;1.52;0.70;;;;;;;22.86;nan;102311.78;5032878;28;20247;-61
2022/07/15 10:06:51;;;;;;;1.77;1.35;;;;;;;23.07;nan;102376.78;5032993;28;20148;-60
2022/07/15 10:09:22;;;;;;;1.60;0.80;;;;;;;22.93;nan;102366.88;5015356;28;20041;-62
2022/07/15 10:11:50;;;;;;;1.52;0.90;;;;;;;23.02;nan;102338.59;5031642;28;20025;-60
2022/07/15 10:14:19;;;;;;;3.95;0.70;;;;;;;23.24;nan;102346.19;5033147;28;20036;-61
2022/07/15 10:17:13;;;;;;;1.77;0.80;;;;;;;23.70;nan;102363.88;5032864;28;20068;-59
2022/07/15 10:19:48;;;;;;;1.23;0.60;;;;;;;24.36;nan;102309.41;5032918;28;20117;-60
2022/07/15 10:22:28;;;;;;;2.22;0.73;;;;;;;25.34;nan;102360.97;5030820;28;20041;-60
2022/07/15 10:25:15;;;;;;;1.50;0.70;;;;;;;26.16;nan;102304.66;5031635;28;20444;-60
2022/07/15 10:28:09;;;;;;;1.65;0.70;;;;;;;27.12;nan;102346.75;5013796;28;20088;-60
2022/07/15 10:30:37;;;;;;;0.60;0.50;;;;;;;26.90;nan;102349.41;5030861;28;20088;-61
2022/07/15 10:33:15;;;;;;;1.52;0.63;;;;;;;27.13;nan;102367.41;5030931;28;20051;-61
2022/07/15 10:35:51;;;;;;;33.63;4.80;;;;;;;27.44;nan;102355.94;5031427;28;20101;-60
2022/07/15 10:38:21;;;;;;;9.30;2.13;;;;;;;27.25;nan;102334.88;5031843;28;20392;-61
2022/07/15 10:41:12;;;;;;;3.25;1.00;;;;;;;25.87;nan;102300.50;5031600;28;20452;-59
2022/07/15 10:43:52;;;;;;;4.30;1.05;;;;;;;25.34;nan;102288.19;5031273;28;20037;-59
2022/07/15 10:46:17;;;;;;;1.35;0.70;;;;;;;26.04;nan;102279.41;5030692;28;20025;-61
2022/07/15 10:48:43;;;;;;;2.72;0.88;;;;;;;27.47;nan;102335.88;5031940;28;20034;-59
2022/07/15 10:51:09;;;;;;;1.63;0.55;;;;;;;27.79;nan;102315.22;5030691;28;20382;-60
2022/07/15 10:53:46;;;;;;;2.13;0.85;;;;;;;28.23;nan;102330.53;5031760;28;20029;-61
2022/07/15 10:56:30;;;;;;;2.10;0.85;;;;;;;28.41;nan;102291.06;5030285;28;20033;-61
2022/07/15 10:59:15;;;;;;;2.63;0.98;;;;;;;28.56;nan;102351.22;5030461;28;20037;-61
2022/07/15 11:01:43;;;;;;;2.42;1.20;;;;;;;28.68;nan;102310.44;5031693;28;20094;-60
2022/07/15 11:04:20;;;;;;;1.92;0.68;;;;;;;29.07;nan;102317.00;5030197;28;20518;-59
2022/07/15 11:09:44;;;;;;;1.48;0.82;;;;;;;29.85;nan;102336.25;5031713;28;20500;-59
2022/07/15 11:12:09;;;;;;;2.78;1.70;;;;;;;29.42;nan;102292.22;5031621;28;20084;-60
2022/07/15 11:14:51;;;;;;;2.30;0.93;;;;;;;29.23;nan;102333.66;5031781;28;20064;-58
2022/07/15 11:17:21;;;;;;;8.93;1.63;;;;;;;28.29;nan;102290.28;5031421;28;20449;-60
2022/07/15 11:19:52;;;;;;;3.10;1.00;;;;;;;28.92;nan;102304.78;5029944;28;20129;-60
2022/07/15 11:22:19;;;;;;;1.20;0.70;;;;;;;29.27;nan;102329.69;5030255;28;20036;-61
2022/07/15 11:24:44;;;;;;;3.30;0.85;;;;;;;29.76;nan;102325.31;5031252;28;20448;-63
2022/07/15 11:27:10;;;;;;;1.20;0.90;;;;;;;30.05;nan;102329.00;5031679;28;20038;-62
2022/07/15 11:29:43;;;;;;;1.48;1.05;;;;;;;29.11;nan;102333.81;5031529;28;20511;-60
2022/07/15 11:32:08;;;;;;;3.67;1.05;;;;;;;28.29;nan;102330.88;5029957;28;20033;-61
2022/07/15 11:34:39;;;;;;;1.65;0.80;;;;;;;27.46;nan;102272.00;5031136;28;20405;-60
2022/07/15 11:37:05;;;;;;;2.33;1.15;;;;;;;27.51;nan;102270.63;5030863;28;20057;-62
2022/07/15 11:39:30;;;;;;;3.38;0.90;;;;;;;26.71;nan;102317.50;5031498;28;20052;-63
2022/07/15 11:44:50;;;;;;;3.05;1.00;;;;;;;27.16;nan;102278.84;5031222;28;20389;-63
2022/07/15 11:47:16;;;;;;;4.00;1.10;;;;;;;28.16;nan;102270.63;5031084;28;20034;-60
2022/07/15 11:49:44;;;;;;;3.70;1.00;;;;;;;28.95;nan;102266.56;5029726;28;20043;-61
2022/07/15 11:52:12;;;;;;;3.90;1.30;;;;;;;29.91;nan;102315.81;5029937;28;20063;-62
2022/07/15 11:54:40;;;;;;;1.50;1.00;;;;;;;29.94;nan;102307.41;5031150;28;20030;-63
2022/07/15 11:57:08;;;;;;;3.85;1.27;;;;;;;30.25;nan;102251.97;5029712;28;20085;-64
2022/07/15 11:59:34;;;;;;;2.88;1.20;;;;;;;31.23;nan;102307.78;5030940;28;20029;-63
2022/07/15 12:02:04;;;;;;;1.70;1.10;;;;;;;30.69;nan;102307.59;5029602;28;20038;-63
2022/07/15 12:04:30;;;;;;;1.83;0.80;;;;;;;29.96;nan;102268.25;5033238;28;20040;-61
2022/07/15 12:06:55;;;;;;;2.38;1.00;;;;;;;28.70;nan;102294.91;5037499;28;20037;-63
2022/07/15 12:09:21;;;;;;;4.22;0.88;;;;;;;27.03;nan;102239.41;5030729;28;20136;-61
2022/07/15 12:11:46;;;;;;;3.03;1.05;;;;;;;27.94;nan;102267.97;5030856;28;20030;-60